Weather History for Madison, MN

Change the Weather History Date:

Tuesday, June 4, 2013

  Actual Average (KAQP) Record (KAQP)
Temperature  
Mean Temperature 62 °F -  
Max Temperature 69 °F 72 °F 93 °F (1999)
Min Temperature 55 °F 51 °F 39 °F (1998)
Degree Days  
Heating Degree Days 3    
Growing Degree Days 12 (Base 50)    
Moisture  
Dew Point 53 °F    
Average Humidity 74    
Maximum Humidity 88    
Minimum Humidity 52    
Precipitation  
Precipitation 0.07 in - - ()
Sea Level Pressure  
Sea Level Pressure 29.93 in    
Wind  
Wind Speed 15 mph (SE)    
Max Wind Speed 22 mph    
Max Gust Speed 26 mph    
Visibility 10 miles    
Events Rain , Thunderstorm    
Averages and records for this station are not official NWS values.
T = Trace of Precipitation, MM = Missing Value Source: NWS Daily Summary

Daily Weather History Graph

Daily Weather History Graph

Search for Another Location

Airport:

Trip Planner

Search our weather history database for the weather conditions in past years. The results will help you decide how hot, cold, wet, or windy it might be!

Date:

Astronomy

Jun. 04, 2013 Rise Set
Actual Time 5:39 AM CDT 9:06 PM CDT
Civil Twilight 5:03 AM CDT 9:43 PM CDT
Nautical Twilight 4:15 AM CDT 10:31 PM CDT
Astronomical Twilight 3:13 AM CDT 11:33 PM CDT
Moon 3:19 AM CDT (6/4) 5:29 PM CDT (6/4)
Length of Visible Light 16h 40m
Length of Day
15h 27m
Waning Crescent, 14% of the Moon is Illuminated
Jun 4
Waning Crescent
Jun 8
New
Jun 16
First Quarter
Jun 23
Full
Jun 29
Last Quarter

Hourly Weather History & Observations

Time (CDT) Temp. Dew Point Humidity Pressure Visibility Wind Dir Wind Speed Gust Speed Precip Events Conditions
12:14 AM 59.0 °F 42.8 °F 55% 29.89 in 10.0 mi ESE 16.1 mph 25.3 mph N/A   Clear
12:33 AM 59.0 °F 42.8 °F 55% 29.91 in 10.0 mi SE 16.1 mph - N/A   Clear
12:54 AM 59.0 °F 42.8 °F 55% 29.91 in 10.0 mi ESE 16.1 mph 23.0 mph N/A   Clear
1:14 AM 59.0 °F 42.8 °F 55% 29.92 in 10.0 mi ESE 16.1 mph 20.7 mph N/A   Scattered Clouds
1:33 AM 60.8 °F 42.8 °F 52% 29.93 in 10.0 mi SE 13.8 mph 20.7 mph N/A   Mostly Cloudy
1:54 AM 59.0 °F 42.8 °F 55% 30.00 in 10.0 mi North 20.7 mph 26.5 mph N/A Thunderstorm Thunderstorm
2:14 AM 55.4 °F 46.4 °F 72% 29.94 in 10.0 mi ENE 19.6 mph - 0.06 in Rain Light Rain
2:33 AM 55.4 °F 46.4 °F 72% 29.93 in 10.0 mi East 17.3 mph 24.2 mph 0.06 in   Mostly Cloudy
2:54 AM 55.4 °F 46.4 °F 72% 29.92 in 10.0 mi ESE 18.4 mph - 0.07 in   Mostly Cloudy
3:13 AM 55.4 °F 46.4 °F 72% 29.93 in 10.0 mi ESE 15.0 mph - N/A   Overcast
3:34 AM 55.4 °F 46.4 °F 72% 29.93 in 10.0 mi ESE 17.3 mph 24.2 mph N/A   Overcast
3:54 AM 55.4 °F 46.4 °F 72% 29.92 in 10.0 mi ESE 16.1 mph - N/A   Mostly Cloudy
4:13 AM 55.4 °F 46.4 °F 72% 29.91 in 10.0 mi ESE 17.3 mph 23.0 mph N/A   Mostly Cloudy
4:34 AM 55.4 °F 46.4 °F 72% 29.89 in 10.0 mi ESE 16.1 mph - N/A   Scattered Clouds
4:54 AM 55.4 °F 48.2 °F 77% 29.88 in 10.0 mi ESE 13.8 mph 19.6 mph N/A   Clear
5:13 AM 55.4 °F 48.2 °F 77% 29.88 in 10.0 mi ESE 15.0 mph - N/A   Scattered Clouds
5:34 AM 55.4 °F 48.2 °F 77% 29.88 in 10.0 mi SE 15.0 mph 20.7 mph N/A   Scattered Clouds
5:54 AM 55.4 °F 48.2 °F 77% 29.89 in 10.0 mi SE 17.3 mph - N/A   Mostly Cloudy
6:14 AM 55.4 °F 48.2 °F 77% 29.89 in 10.0 mi SE 16.1 mph 21.9 mph N/A   Overcast
6:34 AM 55.4 °F 48.2 °F 77% 29.90 in 10.0 mi SE 15.0 mph - N/A Thunderstorm Overcast
6:54 AM 55.4 °F 50.0 °F 82% 29.91 in 10.0 mi SE 10.4 mph - N/A   Overcast
7:14 AM 55.4 °F 50.0 °F 82% 29.91 in 10.0 mi SE 10.4 mph - N/A   Overcast
7:34 AM 57.2 °F 51.8 °F 82% 29.92 in 10.0 mi SE 10.4 mph - N/A   Overcast
7:54 AM 57.2 °F 51.8 °F 82% 29.92 in 10.0 mi SE 9.2 mph - N/A   Overcast
8:13 AM 57.2 °F 51.8 °F 82% 29.93 in 10.0 mi SE 9.2 mph - N/A   Overcast
8:34 AM 57.2 °F 53.6 °F 88% 29.93 in 10.0 mi SE 9.2 mph - N/A   Overcast
8:53 AM 57.2 °F 53.6 °F 88% 29.93 in 10.0 mi SE 9.2 mph - N/A   Overcast
9:14 AM 59.0 °F 53.6 °F 82% 29.93 in 10.0 mi SSE 9.2 mph - N/A   Overcast
9:34 AM 60.8 °F 53.6 °F 77% 29.94 in 10.0 mi SSE 9.2 mph - N/A   Overcast
9:53 AM 59.0 °F 53.6 °F 82% 29.94 in 10.0 mi SE 9.2 mph - N/A   Mostly Cloudy
10:14 AM 59.0 °F 53.6 °F 82% 29.94 in 10.0 mi SSE 10.4 mph - N/A Rain Rain
10:34 AM 60.8 °F 55.4 °F 82% 29.95 in 10.0 mi SSE 8.1 mph - N/A Thunderstorm Mostly Cloudy
10:53 AM 59.0 °F 53.6 °F 82% 29.95 in 10.0 mi SSE 10.4 mph - N/A   Mostly Cloudy
11:14 AM 60.8 °F 55.4 °F 82% 29.95 in 10.0 mi SE 9.2 mph - N/A   Scattered Clouds
11:34 AM 60.8 °F 55.4 °F 82% 29.95 in 10.0 mi SE 9.2 mph - N/A   Scattered Clouds
11:53 AM 60.8 °F 55.4 °F 82% 29.95 in 10.0 mi SE 10.4 mph - N/A   Scattered Clouds
12:14 PM 60.8 °F 55.4 °F 82% 29.95 in 10.0 mi SE 11.5 mph - N/A   Scattered Clouds
12:34 PM 60.8 °F 55.4 °F 82% 29.95 in 10.0 mi SE 9.2 mph - N/A   Scattered Clouds
12:53 PM 62.6 °F 55.4 °F 77% 29.95 in 10.0 mi SE 11.5 mph - N/A   Scattered Clouds
1:14 PM 64.4 °F 57.2 °F 77% 29.94 in 10.0 mi SE 15.0 mph - N/A   Clear
1:34 PM 64.4 °F 57.2 °F 77% 29.94 in 10.0 mi SE 15.0 mph - N/A   Clear
1:53 PM 64.4 °F 57.2 °F 77% 29.94 in 10.0 mi SE 16.1 mph 21.9 mph N/A   Clear
2:14 PM 68.0 °F 59.0 °F 73% 29.93 in 10.0 mi SSE 18.4 mph - N/A   Clear
2:34 PM 66.2 °F 57.2 °F 73% 29.93 in 10.0 mi SE 16.1 mph - N/A   Scattered Clouds
2:53 PM 66.2 °F 57.2 °F 73% 29.93 in 10.0 mi SSE 17.3 mph 23.0 mph N/A   Scattered Clouds
3:14 PM 68.0 °F 57.2 °F 68% 29.93 in 10.0 mi SE 15.0 mph - N/A   Scattered Clouds
3:33 PM 68.0 °F 57.2 °F 68% 29.92 in 10.0 mi SE 18.4 mph - N/A   Scattered Clouds
3:53 PM 68.0 °F 59.0 °F 73% 29.92 in 10.0 mi SSE 17.3 mph - N/A   Clear
4:14 PM 69.8 °F 59.0 °F 68% 29.92 in 10.0 mi SSE 15.0 mph 21.9 mph N/A   Clear
4:33 PM 69.8 °F 57.2 °F 64% 29.91 in 10.0 mi SSE 17.3 mph 21.9 mph N/A   Clear
4:54 PM 68.0 °F 57.2 °F 68% 29.91 in 10.0 mi SE 17.3 mph - N/A   Clear
5:14 PM 68.0 °F 57.2 °F 68% 29.92 in 10.0 mi SSE 16.1 mph - N/A   Clear
5:33 PM 66.2 °F 59.0 °F 78% 29.92 in 10.0 mi SSE 19.6 mph 24.2 mph N/A Rain Light Rain
5:54 PM 68.0 °F 59.0 °F 73% 29.93 in 10.0 mi SE 17.3 mph 21.9 mph N/A   Scattered Clouds
6:14 PM 68.0 °F 57.2 °F 68% 29.93 in 10.0 mi SSE 19.6 mph - N/A   Scattered Clouds
6:33 PM 66.2 °F 57.2 °F 73% 29.92 in 10.0 mi SSE 19.6 mph - N/A   Scattered Clouds
6:54 PM 66.2 °F 57.2 °F 73% 29.92 in 10.0 mi SSE 18.4 mph - N/A   Clear
7:14 PM 66.2 °F 57.2 °F 73% 29.92 in 10.0 mi SSE 21.9 mph - N/A   Clear
7:33 PM 66.2 °F 57.2 °F 73% 29.92 in 10.0 mi SSE 18.4 mph - N/A   Clear
7:54 PM 64.4 °F 57.2 °F 77% 29.93 in 10.0 mi SE 16.1 mph - N/A   Scattered Clouds
8:14 PM 64.4 °F 57.2 °F 77% 29.93 in 10.0 mi SSE 17.3 mph 21.9 mph N/A   Scattered Clouds
8:33 PM 62.6 °F 57.2 °F 82% 29.93 in 10.0 mi SSE 17.3 mph - N/A   Scattered Clouds
8:54 PM 62.6 °F 55.4 °F 77% 29.94 in 10.0 mi SSE 17.3 mph - N/A   Clear
9:14 PM 62.6 °F 55.4 °F 77% 29.94 in 10.0 mi SSE 12.7 mph 20.7 mph N/A   Mostly Cloudy
9:33 PM 62.6 °F 55.4 °F 77% 29.94 in 10.0 mi South 17.3 mph 20.7 mph N/A   Overcast
9:54 PM 62.6 °F 55.4 °F 77% 29.95 in 10.0 mi South 15.0 mph - N/A   Overcast
10:14 PM 62.6 °F 55.4 °F 77% 29.96 in 10.0 mi South 13.8 mph - N/A   Overcast
10:33 PM 62.6 °F 55.4 °F 77% 29.96 in 10.0 mi South 12.7 mph 16.1 mph N/A   Overcast
10:54 PM 60.8 °F 55.4 °F 82% 29.97 in 10.0 mi South 10.4 mph - N/A   Overcast
11:00 PM 60.8 °F 55.4 °F 82% 29.97 in 10.0 mi South 12.7 mph - N/A   Overcast
11:33 PM 62.6 °F 50.0 °F 63% 29.98 in 10.0 mi West 10.4 mph - N/A   Mostly Cloudy
11:54 PM 60.8 °F 48.2 °F 63% 29.98 in 10.0 mi West 9.2 mph - N/A   Mostly Cloudy